sensor_id;sensor_type;location;lat;lon;timestamp;P1;durP1;ratioP1;P2;durP2;ratioP2
32946;SDS011;54465;51.230;22.504;2023-04-03T00:00:01;1.73;;;1.08;;
32946;SDS011;54465;51.230;22.504;2023-04-03T00:05:06;2.72;;;1.30;;
32946;SDS011;54465;51.230;22.504;2023-04-03T00:10:07;2.45;;;1.50;;
32946;SDS011;54465;51.230;22.504;2023-04-03T00:15:08;1.73;;;1.42;;
32946;SDS011;54465;51.230;22.504;2023-04-03T00:20:09;1.95;;;1.23;;
32946;SDS011;54465;51.230;22.504;2023-04-03T00:25:10;1.65;;;0.80;;
32946;SDS011;54465;51.230;22.504;2023-04-03T00:30:11;1.75;;;0.95;;
32946;SDS011;54465;51.230;22.504;2023-04-03T00:35:14;2.15;;;1.15;;
32946;SDS011;54465;51.230;22.504;2023-04-03T00:40:18;1.33;;;0.73;;
32946;SDS011;54465;51.230;22.504;2023-04-03T00:45:23;2.38;;;0.82;;
32946;SDS011;54465;51.230;22.504;2023-04-03T00:50:30;1.40;;;0.93;;
32946;SDS011;54465;51.230;22.504;2023-04-03T00:55:30;2.08;;;0.82;;
32946;SDS011;54465;51.230;22.504;2023-04-03T01:00:31;2.05;;;1.10;;
32946;SDS011;54465;51.230;22.504;2023-04-03T01:05:32;2.22;;;1.17;;
32946;SDS011;54465;51.230;22.504;2023-04-03T01:10:33;1.10;;;0.85;;
32946;SDS011;54465;51.230;22.504;2023-04-03T01:15:34;3.58;;;1.63;;
32946;SDS011;54465;51.230;22.504;2023-04-03T01:20:40;6.32;;;1.38;;
32946;SDS011;54465;51.230;22.504;2023-04-03T01:26:00;2.03;;;1.10;;
32946;SDS011;54465;51.230;22.504;2023-04-03T01:36:35;3.13;;;1.30;;
32946;SDS011;54465;51.230;22.504;2023-04-03T01:41:36;3.10;;;1.15;;
32946;SDS011;54465;51.230;22.504;2023-04-03T01:46:48;1.35;;;0.80;;
32946;SDS011;54465;51.230;22.504;2023-04-03T01:51:49;1.00;;;0.68;;
32946;SDS011;54465;51.230;22.504;2023-04-03T01:56:49;1.73;;;0.80;;
32946;SDS011;54465;51.230;22.504;2023-04-03T02:01:50;1.98;;;0.88;;
32946;SDS011;54465;51.230;22.504;2023-04-03T02:06:51;1.40;;;1.20;;
32946;SDS011;54465;51.230;22.504;2023-04-03T02:11:51;1.13;;;0.63;;
32946;SDS011;54465;51.230;22.504;2023-04-03T02:16:53;1.15;;;0.50;;
32946;SDS011;54465;51.230;22.504;2023-04-03T02:21:56;0.22;;;0.20;;
32946;SDS011;54465;51.230;22.504;2023-04-03T02:26:57;1.85;;;0.63;;
32946;SDS011;54465;51.230;22.504;2023-04-03T02:31:57;0.82;;;0.38;;
32946;SDS011;54465;51.230;22.504;2023-04-03T02:36:59;4.60;;;1.00;;
32946;SDS011;54465;51.230;22.504;2023-04-03T02:41:59;1.55;;;0.82;;
32946;SDS011;54465;51.230;22.504;2023-04-03T02:47:01;2.22;;;1.10;;
32946;SDS011;54465;51.230;22.504;2023-04-03T02:52:02;2.33;;;0.65;;
32946;SDS011;54465;51.230;22.504;2023-04-03T02:57:03;1.77;;;1.13;;
32946;SDS011;54465;51.230;22.504;2023-04-03T03:02:04;1.38;;;0.98;;
32946;SDS011;54465;51.230;22.504;2023-04-03T03:07:04;0.98;;;0.88;;
32946;SDS011;54465;51.230;22.504;2023-04-03T03:12:05;1.45;;;0.57;;
32946;SDS011;54465;51.230;22.504;2023-04-03T03:17:06;1.20;;;0.47;;
32946;SDS011;54465;51.230;22.504;2023-04-03T03:22:07;1.63;;;0.70;;
32946;SDS011;54465;51.230;22.504;2023-04-03T03:27:08;0.93;;;0.50;;
32946;SDS011;54465;51.230;22.504;2023-04-03T03:32:08;1.60;;;0.52;;
32946;SDS011;54465;51.230;22.504;2023-04-03T03:37:09;0.60;;;0.40;;
32946;SDS011;54465;51.230;22.504;2023-04-03T03:42:09;3.42;;;1.00;;
32946;SDS011;54465;51.230;22.504;2023-04-03T03:47:11;0.45;;;0.25;;
32946;SDS011;54465;51.230;22.504;2023-04-03T03:52:12;2.55;;;0.40;;
32946;SDS011;54465;51.230;22.504;2023-04-03T03:57:13;1.02;;;0.55;;
32946;SDS011;54465;51.230;22.504;2023-04-03T04:02:14;3.75;;;0.50;;
32946;SDS011;54465;51.230;22.504;2023-04-03T04:07:16;0.65;;;0.32;;
32946;SDS011;54465;51.230;22.504;2023-04-03T04:12:17;1.35;;;0.65;;
32946;SDS011;54465;51.230;22.504;2023-04-03T04:17:18;4.78;;;1.20;;
32946;SDS011;54465;51.230;22.504;2023-04-03T04:22:18;2.88;;;0.80;;
32946;SDS011;54465;51.230;22.504;2023-04-03T04:27:19;0.68;;;0.35;;
32946;SDS011;54465;51.230;22.504;2023-04-03T04:32:20;2.05;;;0.82;;
32946;SDS011;54465;51.230;22.504;2023-04-03T04:37:21;1.50;;;0.50;;
32946;SDS011;54465;51.230;22.504;2023-04-03T04:42:21;1.55;;;0.85;;
32946;SDS011;54465;51.230;22.504;2023-04-03T04:47:23;2.50;;;1.85;;
32946;SDS011;54465;51.230;22.504;2023-04-03T04:52:25;4.30;;;0.50;;
32946;SDS011;54465;51.230;22.504;2023-04-03T04:57:25;1.35;;;0.65;;
32946;SDS011;54465;51.230;22.504;2023-04-03T05:02:26;1.35;;;0.82;;
32946;SDS011;54465;51.230;22.504;2023-04-03T05:07:28;0.52;;;0.25;;
32946;SDS011;54465;51.230;22.504;2023-04-03T05:12:30;1.92;;;0.70;;
32946;SDS011;54465;51.230;22.504;2023-04-03T05:17:34;0.95;;;0.45;;
32946;SDS011;54465;51.230;22.504;2023-04-03T05:22:36;3.60;;;1.55;;
32946;SDS011;54465;51.230;22.504;2023-04-03T05:27:41;2.30;;;1.08;;
32946;SDS011;54465;51.230;22.504;2023-04-03T05:32:42;1.80;;;0.50;;
32946;SDS011;54465;51.230;22.504;2023-04-03T05:37:51;1.45;;;0.80;;
32946;SDS011;54465;51.230;22.504;2023-04-03T05:42:52;1.08;;;0.73;;
32946;SDS011;54465;51.230;22.504;2023-04-03T05:47:54;4.70;;;0.63;;
32946;SDS011;54465;51.230;22.504;2023-04-03T05:52:56;0.63;;;0.43;;
32946;SDS011;54465;51.230;22.504;2023-04-03T05:58:01;8.93;;;0.93;;
32946;SDS011;54465;51.230;22.504;2023-04-03T06:03:02;0.70;;;0.52;;
32946;SDS011;54465;51.230;22.504;2023-04-03T06:08:03;1.08;;;0.82;;
32946;SDS011;54465;51.230;22.504;2023-04-03T06:13:04;0.60;;;0.30;;
32946;SDS011;54465;51.230;22.504;2023-04-03T06:18:06;3.78;;;1.00;;
32946;SDS011;54465;51.230;22.504;2023-04-03T06:23:08;2.40;;;0.57;;
32946;SDS011;54465;51.230;22.504;2023-04-03T06:28:09;4.05;;;0.63;;
32946;SDS011;54465;51.230;22.504;2023-04-03T06:33:10;1.77;;;0.30;;
32946;SDS011;54465;51.230;22.504;2023-04-03T06:38:10;0.82;;;0.35;;
32946;SDS011;54465;51.230;22.504;2023-04-03T06:43:11;1.83;;;0.82;;
32946;SDS011;54465;51.230;22.504;2023-04-03T06:48:12;2.05;;;1.10;;
32946;SDS011;54465;51.230;22.504;2023-04-03T06:53:13;2.15;;;0.70;;
32946;SDS011;54465;51.230;22.504;2023-04-03T06:58:14;0.55;;;0.50;;
32946;SDS011;54465;51.230;22.504;2023-04-03T07:03:17;1.30;;;0.50;;
32946;SDS011;54465;51.230;22.504;2023-04-03T07:08:18;2.55;;;0.98;;
32946;SDS011;54465;51.230;22.504;2023-04-03T07:13:18;1.75;;;0.50;;
32946;SDS011;54465;51.230;22.504;2023-04-03T07:18:19;1.10;;;0.50;;
32946;SDS011;54465;51.230;22.504;2023-04-03T07:23:19;0.85;;;0.60;;
32946;SDS011;54465;51.230;22.504;2023-04-03T07:28:20;0.82;;;0.52;;
32946;SDS011;54465;51.230;22.504;2023-04-03T07:33:22;0.55;;;0.50;;
32946;SDS011;54465;51.230;22.504;2023-04-03T07:38:23;2.20;;;0.88;;
32946;SDS011;54465;51.230;22.504;2023-04-03T07:43:24;2.17;;;0.90;;
32946;SDS011;54465;51.230;22.504;2023-04-03T07:48:25;2.50;;;1.38;;
32946;SDS011;54465;51.230;22.504;2023-04-03T07:53:25;4.28;;;0.90;;
32946;SDS011;54465;51.230;22.504;2023-04-03T07:58:26;1.05;;;0.95;;
32946;SDS011;54465;51.230;22.504;2023-04-03T08:03:27;0.77;;;0.60;;
32946;SDS011;54465;51.230;22.504;2023-04-03T08:08:27;1.58;;;0.75;;
32946;SDS011;54465;51.230;22.504;2023-04-03T08:13:29;1.90;;;0.70;;
32946;SDS011;54465;51.230;22.504;2023-04-03T08:18:30;1.83;;;1.45;;
32946;SDS011;54465;51.230;22.504;2023-04-03T08:23:31;3.10;;;0.80;;
32946;SDS011;54465;51.230;22.504;2023-04-03T08:28:32;2.15;;;0.82;;
32946;SDS011;54465;51.230;22.504;2023-04-03T08:33:33;3.33;;;0.82;;
32946;SDS011;54465;51.230;22.504;2023-04-03T08:38:34;1.35;;;1.10;;
32946;SDS011;54465;51.230;22.504;2023-04-03T08:48:52;2.15;;;0.60;;
32946;SDS011;54465;51.230;22.504;2023-04-03T08:53:56;0.55;;;0.30;;
32946;SDS011;54465;51.230;22.504;2023-04-03T08:59:04;1.48;;;0.43;;
32946;SDS011;54465;51.230;22.504;2023-04-03T09:04:10;2.42;;;0.50;;
32946;SDS011;54465;51.230;22.504;2023-04-03T09:19:37;2.30;;;0.80;;
32946;SDS011;54465;51.230;22.504;2023-04-03T09:24:43;2.28;;;0.95;;
32946;SDS011;54465;51.230;22.504;2023-04-03T09:29:46;1.33;;;0.75;;
32946;SDS011;54465;51.230;22.504;2023-04-03T09:34:46;2.25;;;0.50;;
32946;SDS011;54465;51.230;22.504;2023-04-03T09:39:51;2.83;;;0.65;;
32946;SDS011;54465;51.230;22.504;2023-04-03T09:44:57;2.17;;;0.60;;
32946;SDS011;54465;51.230;22.504;2023-04-03T09:55:16;1.35;;;0.85;;
32946;SDS011;54465;51.230;22.504;2023-04-03T10:00:23;1.13;;;0.80;;
32946;SDS011;54465;51.230;22.504;2023-04-03T10:05:36;1.65;;;0.43;;
32946;SDS011;54465;51.230;22.504;2023-04-03T10:10:41;2.42;;;0.88;;
32946;SDS011;54465;51.230;22.504;2023-04-03T10:15:44;1.40;;;0.52;;
32946;SDS011;54465;51.230;22.504;2023-04-03T10:20:47;1.73;;;0.65;;
32946;SDS011;54465;51.230;22.504;2023-04-03T10:46:53;4.25;;;1.20;;
32946;SDS011;54465;51.230;22.504;2023-04-03T10:57:19;1.83;;;0.60;;
32946;SDS011;54465;51.230;22.504;2023-04-03T11:02:23;2.58;;;0.85;;
32946;SDS011;54465;51.230;22.504;2023-04-03T11:07:34;0.70;;;0.38;;
32946;SDS011;54465;51.230;22.504;2023-04-03T11:12:46;2.67;;;0.60;;
32946;SDS011;54465;51.230;22.504;2023-04-03T11:22:51;4.18;;;1.10;;
32946;SDS011;54465;51.230;22.504;2023-04-03T11:27:59;0.87;;;0.60;;
32946;SDS011;54465;51.230;22.504;2023-04-03T11:33:05;0.95;;;0.60;;
32946;SDS011;54465;51.230;22.504;2023-04-03T11:38:10;0.60;;;0.40;;
32946;SDS011;54465;51.230;22.504;2023-04-03T11:53:39;4.32;;;0.90;;
32946;SDS011;54465;51.230;22.504;2023-04-03T11:58:40;3.20;;;0.88;;
32946;SDS011;54465;51.230;22.504;2023-04-03T12:04:11;2.45;;;1.10;;
32946;SDS011;54465;51.230;22.504;2023-04-03T12:09:25;2.85;;;0.90;;
32946;SDS011;54465;51.230;22.504;2023-04-03T12:14:32;1.55;;;0.55;;
32946;SDS011;54465;51.230;22.504;2023-04-03T12:19:36;1.65;;;0.40;;
32946;SDS011;54465;51.230;22.504;2023-04-03T12:24:42;1.48;;;0.43;;
32946;SDS011;54465;51.230;22.504;2023-04-03T12:29:48;1.38;;;0.50;;
32946;SDS011;54465;51.230;22.504;2023-04-03T12:45:40;1.92;;;1.02;;
32946;SDS011;54465;51.230;22.504;2023-04-03T12:50:43;2.75;;;0.77;;
32946;SDS011;54465;51.230;22.504;2023-04-03T12:55:45;1.33;;;0.45;;
32946;SDS011;54465;51.230;22.504;2023-04-03T13:00:46;2.20;;;0.70;;
32946;SDS011;54465;51.230;22.504;2023-04-03T13:05:46;1.42;;;0.90;;
32946;SDS011;54465;51.230;22.504;2023-04-03T13:10:58;1.85;;;0.55;;
32946;SDS011;54465;51.230;22.504;2023-04-03T13:15:59;0.50;;;0.20;;
32946;SDS011;54465;51.230;22.504;2023-04-03T13:21:20;2.15;;;0.45;;
32946;SDS011;54465;51.230;22.504;2023-04-03T13:26:25;0.63;;;0.50;;
32946;SDS011;54465;51.230;22.504;2023-04-03T13:31:28;1.45;;;0.30;;
32946;SDS011;54465;51.230;22.504;2023-04-03T13:36:32;2.20;;;0.50;;
32946;SDS011;54465;51.230;22.504;2023-04-03T13:41:38;2.88;;;1.00;;
32946;SDS011;54465;51.230;22.504;2023-04-03T13:46:40;1.95;;;0.47;;
32946;SDS011;54465;51.230;22.504;2023-04-03T13:51:40;0.60;;;0.47;;
32946;SDS011;54465;51.230;22.504;2023-04-03T13:56:41;1.45;;;0.50;;
32946;SDS011;54465;51.230;22.504;2023-04-03T14:01:48;2.25;;;0.40;;
32946;SDS011;54465;51.230;22.504;2023-04-03T14:06:53;1.85;;;0.57;;
32946;SDS011;54465;51.230;22.504;2023-04-03T14:12:04;2.22;;;0.60;;
32946;SDS011;54465;51.230;22.504;2023-04-03T14:17:14;5.60;;;0.60;;
32946;SDS011;54465;51.230;22.504;2023-04-03T14:22:18;2.83;;;0.70;;
32946;SDS011;54465;51.230;22.504;2023-04-03T14:27:22;2.42;;;0.90;;
32946;SDS011;54465;51.230;22.504;2023-04-03T14:32:30;7.18;;;0.90;;
32946;SDS011;54465;51.230;22.504;2023-04-03T14:37:31;2.50;;;0.82;;
32946;SDS011;54465;51.230;22.504;2023-04-03T14:42:33;1.10;;;0.80;;
32946;SDS011;54465;51.230;22.504;2023-04-03T14:47:37;1.90;;;0.80;;
32946;SDS011;54465;51.230;22.504;2023-04-03T14:52:41;1.42;;;0.70;;
32946;SDS011;54465;51.230;22.504;2023-04-03T14:57:42;0.93;;;0.60;;
32946;SDS011;54465;51.230;22.504;2023-04-03T15:02:43;0.90;;;0.43;;
32946;SDS011;54465;51.230;22.504;2023-04-03T15:07:48;1.55;;;0.73;;
32946;SDS011;54465;51.230;22.504;2023-04-03T15:12:50;3.20;;;0.95;;
32946;SDS011;54465;51.230;22.504;2023-04-03T15:17:53;2.15;;;0.88;;
32946;SDS011;54465;51.230;22.504;2023-04-03T15:22:54;1.67;;;0.55;;
32946;SDS011;54465;51.230;22.504;2023-04-03T15:27:56;2.53;;;1.45;;
32946;SDS011;54465;51.230;22.504;2023-04-03T15:32:57;1.05;;;0.47;;
32946;SDS011;54465;51.230;22.504;2023-04-03T15:37:57;1.60;;;0.40;;
32946;SDS011;54465;51.230;22.504;2023-04-03T15:42:58;1.52;;;0.45;;
32946;SDS011;54465;51.230;22.504;2023-04-03T15:47:58;0.93;;;0.40;;
32946;SDS011;54465;51.230;22.504;2023-04-03T15:53:00;5.63;;;0.68;;
32946;SDS011;54465;51.230;22.504;2023-04-03T15:58:02;1.75;;;0.68;;
32946;SDS011;54465;51.230;22.504;2023-04-03T16:03:07;1.83;;;0.60;;
32946;SDS011;54465;51.230;22.504;2023-04-03T16:13:10;2.30;;;1.10;;
32946;SDS011;54465;51.230;22.504;2023-04-03T16:18:10;4.45;;;1.20;;
32946;SDS011;54465;51.230;22.504;2023-04-03T16:23:13;7.07;;;2.45;;
32946;SDS011;54465;51.230;22.504;2023-04-03T16:28:14;2.17;;;0.93;;
32946;SDS011;54465;51.230;22.504;2023-04-03T16:33:14;2.55;;;1.08;;
32946;SDS011;54465;51.230;22.504;2023-04-03T16:38:15;2.70;;;1.30;;
32946;SDS011;54465;51.230;22.504;2023-04-03T16:43:16;4.72;;;1.40;;
32946;SDS011;54465;51.230;22.504;2023-04-03T16:48:16;3.60;;;1.50;;
32946;SDS011;54465;51.230;22.504;2023-04-03T16:53:16;5.88;;;1.83;;
32946;SDS011;54465;51.230;22.504;2023-04-03T16:58:17;6.47;;;1.88;;
32946;SDS011;54465;51.230;22.504;2023-04-03T17:03:17;2.08;;;1.27;;
32946;SDS011;54465;51.230;22.504;2023-04-03T17:08:18;3.25;;;1.95;;
32946;SDS011;54465;51.230;22.504;2023-04-03T17:13:18;2.83;;;1.30;;
32946;SDS011;54465;51.230;22.504;2023-04-03T17:18:19;7.05;;;2.10;;
32946;SDS011;54465;51.230;22.504;2023-04-03T17:23:20;3.53;;;1.55;;
32946;SDS011;54465;51.230;22.504;2023-04-03T17:28:20;5.18;;;1.92;;
32946;SDS011;54465;51.230;22.504;2023-04-03T17:33:24;5.15;;;2.00;;
32946;SDS011;54465;51.230;22.504;2023-04-03T17:38:25;5.90;;;2.15;;
32946;SDS011;54465;51.230;22.504;2023-04-03T17:43:26;5.88;;;2.95;;
32946;SDS011;54465;51.230;22.504;2023-04-03T17:48:27;5.55;;;1.98;;
32946;SDS011;54465;51.230;22.504;2023-04-03T17:53:27;7.38;;;1.98;;
32946;SDS011;54465;51.230;22.504;2023-04-03T17:58:28;3.88;;;1.88;;
32946;SDS011;54465;51.230;22.504;2023-04-03T18:03:28;3.55;;;1.60;;
32946;SDS011;54465;51.230;22.504;2023-04-03T18:08:30;5.85;;;1.42;;
32946;SDS011;54465;51.230;22.504;2023-04-03T18:13:32;3.58;;;1.42;;
32946;SDS011;54465;51.230;22.504;2023-04-03T18:18:36;4.07;;;1.38;;
32946;SDS011;54465;51.230;22.504;2023-04-03T18:23:38;5.05;;;1.27;;
32946;SDS011;54465;51.230;22.504;2023-04-03T18:28:41;2.75;;;1.40;;
32946;SDS011;54465;51.230;22.504;2023-04-03T18:33:44;5.32;;;1.77;;
32946;SDS011;54465;51.230;22.504;2023-04-03T18:38:45;3.85;;;1.65;;
32946;SDS011;54465;51.230;22.504;2023-04-03T18:43:45;5.53;;;2.25;;
32946;SDS011;54465;51.230;22.504;2023-04-03T18:48:46;4.93;;;1.50;;
32946;SDS011;54465;51.230;22.504;2023-04-03T18:53:46;5.25;;;2.13;;
32946;SDS011;54465;51.230;22.504;2023-04-03T18:58:47;5.10;;;1.48;;
32946;SDS011;54465;51.230;22.504;2023-04-03T19:03:47;5.78;;;1.75;;
32946;SDS011;54465;51.230;22.504;2023-04-03T19:08:48;4.20;;;1.50;;
32946;SDS011;54465;51.230;22.504;2023-04-03T19:13:50;2.13;;;1.73;;
32946;SDS011;54465;51.230;22.504;2023-04-03T19:18:50;3.47;;;1.20;;
32946;SDS011;54465;51.230;22.504;2023-04-03T19:23:51;3.72;;;1.35;;
32946;SDS011;54465;51.230;22.504;2023-04-03T19:28:51;2.92;;;1.27;;
32946;SDS011;54465;51.230;22.504;2023-04-03T19:33:52;7.65;;;1.95;;
32946;SDS011;54465;51.230;22.504;2023-04-03T19:38:52;3.33;;;1.27;;
32946;SDS011;54465;51.230;22.504;2023-04-03T19:43:53;3.75;;;1.63;;
32946;SDS011;54465;51.230;22.504;2023-04-03T19:48:55;4.70;;;1.80;;
32946;SDS011;54465;51.230;22.504;2023-04-03T19:53:56;1.83;;;1.45;;
32946;SDS011;54465;51.230;22.504;2023-04-03T19:58:56;3.70;;;1.40;;
32946;SDS011;54465;51.230;22.504;2023-04-03T20:03:57;5.82;;;1.70;;
32946;SDS011;54465;51.230;22.504;2023-04-03T20:08:57;2.88;;;1.00;;
32946;SDS011;54465;51.230;22.504;2023-04-03T20:13:58;2.63;;;1.15;;
32946;SDS011;54465;51.230;22.504;2023-04-03T20:18:59;3.97;;;1.55;;
32946;SDS011;54465;51.230;22.504;2023-04-03T20:24:00;4.38;;;1.70;;
32946;SDS011;54465;51.230;22.504;2023-04-03T20:29:02;6.50;;;2.13;;
32946;SDS011;54465;51.230;22.504;2023-04-03T20:34:03;4.97;;;1.52;;
32946;SDS011;54465;51.230;22.504;2023-04-03T20:39:03;3.85;;;1.70;;
32946;SDS011;54465;51.230;22.504;2023-04-03T20:44:04;2.08;;;1.13;;
32946;SDS011;54465;51.230;22.504;2023-04-03T20:49:05;2.33;;;1.40;;
32946;SDS011;54465;51.230;22.504;2023-04-03T20:54:05;7.22;;;1.80;;
32946;SDS011;54465;51.230;22.504;2023-04-03T20:59:06;2.47;;;1.45;;
32946;SDS011;54465;51.230;22.504;2023-04-03T21:04:16;5.32;;;1.95;;
32946;SDS011;54465;51.230;22.504;2023-04-03T21:20:34;5.20;;;1.63;;
32946;SDS011;54465;51.230;22.504;2023-04-03T21:25:34;4.70;;;1.60;;
32946;SDS011;54465;51.230;22.504;2023-04-03T21:30:35;6.07;;;1.90;;
32946;SDS011;54465;51.230;22.504;2023-04-03T21:35:35;5.20;;;1.65;;
32946;SDS011;54465;51.230;22.504;2023-04-03T21:40:36;9.25;;;1.77;;
32946;SDS011;54465;51.230;22.504;2023-04-03T21:45:36;5.88;;;1.50;;
32946;SDS011;54465;51.230;22.504;2023-04-03T21:50:38;3.78;;;1.33;;
32946;SDS011;54465;51.230;22.504;2023-04-03T21:55:38;6.18;;;1.83;;
32946;SDS011;54465;51.230;22.504;2023-04-03T22:00:39;6.90;;;1.95;;
32946;SDS011;54465;51.230;22.504;2023-04-03T22:05:39;2.72;;;1.50;;
32946;SDS011;54465;51.230;22.504;2023-04-03T22:10:40;2.80;;;1.08;;
32946;SDS011;54465;51.230;22.504;2023-04-03T22:15:41;8.48;;;1.67;;
32946;SDS011;54465;51.230;22.504;2023-04-03T22:20:42;2.30;;;1.35;;
32946;SDS011;54465;51.230;22.504;2023-04-03T22:25:43;2.13;;;1.48;;
32946;SDS011;54465;51.230;22.504;2023-04-03T22:31:00;3.63;;;1.33;;
32946;SDS011;54465;51.230;22.504;2023-04-03T22:36:07;1.63;;;0.95;;
32946;SDS011;54465;51.230;22.504;2023-04-03T22:41:08;3.47;;;1.00;;
32946;SDS011;54465;51.230;22.504;2023-04-03T22:46:09;6.82;;;2.08;;
32946;SDS011;54465;51.230;22.504;2023-04-03T22:51:10;2.75;;;1.27;;
32946;SDS011;54465;51.230;22.504;2023-04-03T22:56:11;2.70;;;1.13;;
32946;SDS011;54465;51.230;22.504;2023-04-03T23:01:13;4.70;;;1.70;;
32946;SDS011;54465;51.230;22.504;2023-04-03T23:06:14;3.25;;;1.45;;
32946;SDS011;54465;51.230;22.504;2023-04-03T23:11:14;4.82;;;1.23;;
32946;SDS011;54465;51.230;22.504;2023-04-03T23:16:15;3.60;;;1.50;;
32946;SDS011;54465;51.230;22.504;2023-04-03T23:21:16;5.32;;;1.75;;
32946;SDS011;54465;51.230;22.504;2023-04-03T23:26:16;5.00;;;1.35;;
32946;SDS011;54465;51.230;22.504;2023-04-03T23:31:17;5.57;;;1.98;;
32946;SDS011;54465;51.230;22.504;2023-04-03T23:36:17;3.25;;;1.52;;
32946;SDS011;54465;51.230;22.504;2023-04-03T23:41:20;3.38;;;1.63;;
32946;SDS011;54465;51.230;22.504;2023-04-03T23:46:20;2.67;;;1.40;;
32946;SDS011;54465;51.230;22.504;2023-04-03T23:51:20;5.00;;;1.48;;
32946;SDS011;54465;51.230;22.504;2023-04-03T23:56:21;3.13;;;1.90;;
